UAE372 OMDB-VTBS
Flight info
| Callsign | UAE372 |
|---|---|
| Flight time | 5h 47m |
| Altitude | 41000 |
| Route | IVURO M677 LALDO B505 NADSO B524 ALPOR M504 TELEM A791 BPL T1 BBS N895 BETNO P646 TARED WILLA1C |
| Aircraft | A359/H-SDE2E3GHIJ3J4J5LM1ORWXY/LB1D1 |
Departure
| Time | 2026-04-23 09:54 |
|---|---|
| Airport | Dubai International Airport (OMDB) |
Arrival
| Time | 2026-04-23 15:42 |
|---|---|
| Airport | Suvarnabhumi Airport (VTBS) |
| Time | Latitude | Longitude | Altitude | Speed | Heading |
|---|---|---|---|---|---|
| 2026-04-23 09:29 | 25.25014 | 55.36058 | 42 ft | 0 kts | 211° |
| 2026-04-23 09:38 | 25.25020 | 55.36063 | 42 ft | 2 kts | 211° |
| 2026-04-23 09:38 | 25.25033 | 55.36071 | 42 ft | 2 kts | 211° |
| 2026-04-23 09:39 | 25.25042 | 55.36077 | 42 ft | 1 kts | 211° |
| 2026-04-23 09:39 | 25.25055 | 55.36085 | 42 ft | 2 kts | 198° |
| 2026-04-23 09:39 | 25.25069 | 55.36088 | 42 ft | 2 kts | 182° |
| 2026-04-23 09:39 | 25.25084 | 55.36087 | 42 ft | 2 kts | 169° |
| 2026-04-23 09:40 | 25.25098 | 55.36083 | 42 ft | 2 kts | 155° |
| 2026-04-23 09:40 | 25.25111 | 55.36075 | 42 ft | 2 kts | 141° |
| 2026-04-23 09:40 | 25.25122 | 55.36063 | 42 ft | 2 kts | 127° |
| 2026-04-23 09:40 | 25.25127 | 55.36056 | 42 ft | 1 kts | 120° |
| 2026-04-23 09:41 | 25.25128 | 55.36054 | 42 ft | 0 kts | 120° |
| 2026-04-23 09:44 | 25.25125 | 55.36059 | 42 ft | 1 kts | 120° |
| 2026-04-23 09:44 | 25.25120 | 55.36069 | 42 ft | 1 kts | 120° |
| 2026-04-23 09:44 | 25.25111 | 55.36086 | 42 ft | 4 kts | 122° |
| 2026-04-23 09:44 | 25.25086 | 55.36129 | 42 ft | 9 kts | 122° |
| 2026-04-23 09:45 | 25.25045 | 55.36203 | 42 ft | 11 kts | 122° |
| 2026-04-23 09:45 | 25.25008 | 55.36269 | 42 ft | 9 kts | 120° |
| 2026-04-23 09:45 | 25.24985 | 55.36340 | 42 ft | 10 kts | 99° |
| 2026-04-23 09:45 | 25.24978 | 55.36421 | 42 ft | 12 kts | 91° |
| 2026-04-23 09:46 | 25.24961 | 55.36538 | 42 ft | 18 kts | 116° |
| 2026-04-23 09:46 | 25.24889 | 55.36676 | 42 ft | 23 kts | 113° |
| 2026-04-23 09:46 | 25.24840 | 55.36863 | 42 ft | 24 kts | 112° |
| 2026-04-23 09:46 | 25.24770 | 55.36998 | 42 ft | 20 kts | 121° |
| 2026-04-23 09:47 | 25.24695 | 55.37132 | 42 ft | 20 kts | 121° |
| 2026-04-23 09:47 | 25.24619 | 55.37270 | 42 ft | 21 kts | 121° |
| 2026-04-23 09:47 | 25.24539 | 55.37415 | 42 ft | 22 kts | 121° |
| 2026-04-23 09:47 | 25.24459 | 55.37560 | 42 ft | 21 kts | 121° |
| 2026-04-23 09:48 | 25.24388 | 55.37686 | 42 ft | 18 kts | 122° |
| 2026-04-23 09:48 | 25.24339 | 55.37775 | 42 ft | 7 kts | 118° |
| 2026-04-23 09:48 | 25.24346 | 55.37821 | 42 ft | 6 kts | 51° |
| 2026-04-23 09:48 | 25.24364 | 55.37838 | 42 ft | 1 kts | 36° |
| 2026-04-23 09:49 | 25.24377 | 55.37849 | 42 ft | 2 kts | 35° |
| 2026-04-23 09:49 | 25.24411 | 55.37875 | 42 ft | 10 kts | 34° |
| 2026-04-23 09:49 | 25.24499 | 55.37941 | 42 ft | 19 kts | 34° |
| 2026-04-23 09:49 | 25.24598 | 55.38016 | 42 ft | 12 kts | 33° |
| 2026-04-23 09:50 | 25.24645 | 55.38049 | 42 ft | 2 kts | 32° |
| 2026-04-23 09:50 | 25.24651 | 55.38054 | 42 ft | 0 kts | 31° |
| 2026-04-23 09:50 | 25.24652 | 55.38054 | 42 ft | 0 kts | 31° |
| 2026-04-23 09:50 | 25.24664 | 55.38062 | 42 ft | 5 kts | 31° |
| 2026-04-23 09:51 | 25.24717 | 55.38099 | 42 ft | 10 kts | 32° |
| 2026-04-23 09:51 | 25.24762 | 55.38095 | 42 ft | 7 kts | 323° |
| 2026-04-23 09:51 | 25.24780 | 55.38073 | 42 ft | 0 kts | 302° |
| 2026-04-23 09:53 | 25.24781 | 55.38071 | 42 ft | 0 kts | 302° |
| 2026-04-23 09:53 | 25.24851 | 55.37946 | 42 ft | 51 kts | 302° |
| 2026-04-23 09:53 | 25.25163 | 55.37385 | 42 ft | 118 kts | 302° |
| 2026-04-23 09:53 | 25.25706 | 55.36406 | 55 ft | 173 kts | 303° |
| 2026-04-23 09:54 | 25.26340 | 55.35219 | 558 ft | 183 kts | 303° |
| 2026-04-23 09:54 | 25.26985 | 55.34027 | 1273 ft | 185 kts | 304° |
| 2026-04-23 09:54 | 25.27662 | 55.32812 | 1951 ft | 186 kts | 304° |
| 2026-04-23 09:54 | 25.28429 | 55.31663 | 2233 ft | 192 kts | 326° |
| 2026-04-23 09:55 | 25.29696 | 55.31287 | 2460 ft | 194 kts | 13° |
| 2026-04-23 09:55 | 25.30829 | 55.32068 | 2690 ft | 203 kts | 57° |
| 2026-04-23 09:55 | 25.31367 | 55.33555 | 3004 ft | 216 kts | 73° |
| 2026-04-23 09:55 | 25.31813 | 55.35206 | 3314 ft | 231 kts | 72° |
| 2026-04-23 09:56 | 25.32325 | 55.36939 | 3624 ft | 246 kts | 70° |
| 2026-04-23 09:56 | 25.32904 | 55.38780 | 3950 ft | 260 kts | 70° |
| 2026-04-23 09:56 | 25.33516 | 55.40688 | 4462 ft | 266 kts | 70° |
| 2026-04-23 09:56 | 25.34125 | 55.42605 | 5082 ft | 268 kts | 70° |
| 2026-04-23 09:57 | 25.34745 | 55.44555 | 5708 ft | 270 kts | 71° |
| 2026-04-23 09:57 | 25.35365 | 55.46505 | 6320 ft | 273 kts | 71° |
| 2026-04-23 09:57 | 25.36000 | 55.48494 | 6933 ft | 275 kts | 71° |
| 2026-04-23 09:57 | 25.36638 | 55.50498 | 7538 ft | 277 kts | 71° |
| 2026-04-23 09:58 | 25.37275 | 55.52494 | 8127 ft | 280 kts | 71° |
| 2026-04-23 09:58 | 25.37926 | 55.54539 | 8716 ft | 282 kts | 72° |
| 2026-04-23 09:58 | 25.38577 | 55.56582 | 9289 ft | 285 kts | 72° |
| 2026-04-23 09:58 | 25.39240 | 55.58662 | 9859 ft | 288 kts | 72° |
| 2026-04-23 09:59 | 25.39899 | 55.60737 | 10369 ft | 293 kts | 72° |
| 2026-04-23 09:59 | 25.40586 | 55.62902 | 10643 ft | 306 kts | 72° |
| 2026-04-23 09:59 | 25.41303 | 55.65165 | 10909 ft | 319 kts | 72° |
| 2026-04-23 09:59 | 25.41981 | 55.67572 | 11167 ft | 331 kts | 80° |
| 2026-04-23 10:00 | 25.42208 | 55.70107 | 11416 ft | 341 kts | 93° |
| 2026-04-23 10:00 | 25.41902 | 55.72773 | 11682 ft | 352 kts | 103° |
| 2026-04-23 10:00 | 25.41350 | 55.75427 | 12116 ft | 358 kts | 105° |
| 2026-04-23 10:00 | 25.40767 | 55.78080 | 12641 ft | 361 kts | 105° |
| 2026-04-23 10:01 | 25.40174 | 55.80794 | 13192 ft | 363 kts | 105° |
| 2026-04-23 10:01 | 25.39585 | 55.83519 | 13732 ft | 366 kts | 105° |
| 2026-04-23 10:01 | 25.38996 | 55.86262 | 14259 ft | 369 kts | 105° |
| 2026-04-23 10:01 | 25.38407 | 55.89016 | 14773 ft | 371 kts | 105° |
| 2026-04-23 10:02 | 25.37811 | 55.91799 | 15279 ft | 374 kts | 105° |
| 2026-04-23 10:02 | 25.37213 | 55.94593 | 15776 ft | 377 kts | 105° |
| 2026-04-23 10:02 | 25.36607 | 55.97421 | 16268 ft | 380 kts | 105° |
| 2026-04-23 10:02 | 25.35999 | 56.00251 | 16749 ft | 383 kts | 106° |
| 2026-04-23 10:03 | 25.35382 | 56.03132 | 17229 ft | 386 kts | 106° |
| 2026-04-23 10:03 | 25.34761 | 56.06025 | 17701 ft | 389 kts | 106° |
| 2026-04-23 10:03 | 25.34136 | 56.08931 | 18163 ft | 392 kts | 106° |
| 2026-04-23 10:03 | 25.33507 | 56.11854 | 18616 ft | 395 kts | 105° |
| 2026-04-23 10:04 | 25.32953 | 56.14819 | 19059 ft | 399 kts | 103° |
| 2026-04-23 10:04 | 25.32545 | 56.17875 | 19502 ft | 404 kts | 99° |
| 2026-04-23 10:04 | 25.32266 | 56.20975 | 19939 ft | 408 kts | 98° |
| 2026-04-23 10:04 | 25.32014 | 56.24097 | 20369 ft | 411 kts | 98° |
| 2026-04-23 10:05 | 25.31762 | 56.27241 | 20793 ft | 414 kts | 98° |
| 2026-04-23 10:05 | 25.31504 | 56.30414 | 21213 ft | 418 kts | 98° |
| 2026-04-23 10:05 | 25.31237 | 56.33633 | 21630 ft | 421 kts | 98° |
| 2026-04-23 10:05 | 25.30969 | 56.36837 | 22036 ft | 424 kts | 99° |
| 2026-04-23 10:06 | 25.30742 | 56.40091 | 22435 ft | 429 kts | 96° |
| 2026-04-23 10:06 | 25.30624 | 56.43390 | 22837 ft | 433 kts | 95° |
| 2026-04-23 10:06 | 25.30529 | 56.46710 | 23226 ft | 436 kts | 95° |
| 2026-04-23 10:06 | 25.30435 | 56.50093 | 23610 ft | 440 kts | 95° |
| 2026-04-23 10:07 | 25.30338 | 56.53452 | 23989 ft | 443 kts | 95° |
| 2026-04-23 10:07 | 25.30159 | 56.56881 | 24360 ft | 444 kts | 100° |
| 2026-04-23 10:07 | 25.29648 | 56.60241 | 24721 ft | 444 kts | 107° |
| 2026-04-23 10:07 | 25.28789 | 56.63493 | 25065 ft | 443 kts | 114° |
| 2026-04-23 10:08 | 25.27650 | 56.66674 | 25410 ft | 445 kts | 117° |
| 2026-04-23 10:08 | 25.26465 | 56.69793 | 25735 ft | 448 kts | 117° |
| 2026-04-23 10:08 | 25.25240 | 56.72984 | 26055 ft | 451 kts | 117° |
| 2026-04-23 10:09 | 25.22793 | 56.79376 | 26669 ft | 456 kts | 117° |
| 2026-04-23 10:09 | 25.21557 | 56.82615 | 26958 ft | 459 kts | 117° |
| 2026-04-23 10:09 | 25.20329 | 56.85841 | 27243 ft | 462 kts | 117° |
| 2026-04-23 10:09 | 25.19076 | 56.89129 | 27525 ft | 465 kts | 117° |
| 2026-04-23 10:10 | 25.17832 | 56.92395 | 27799 ft | 467 kts | 117° |
| 2026-04-23 10:10 | 25.16572 | 56.95704 | 28100 ft | 469 kts | 117° |
| 2026-04-23 10:10 | 25.15307 | 56.99025 | 28537 ft | 467 kts | 117° |
| 2026-04-23 10:10 | 25.14052 | 57.02321 | 28985 ft | 465 kts | 117° |
| 2026-04-23 10:11 | 25.12814 | 57.05567 | 29312 ft | 465 kts | 117° |
| 2026-04-23 10:11 | 25.11546 | 57.08881 | 29567 ft | 467 kts | 117° |
| 2026-04-23 10:11 | 25.10287 | 57.12171 | 29792 ft | 469 kts | 117° |
| 2026-04-23 10:11 | 25.09019 | 57.15479 | 30019 ft | 472 kts | 117° |
| 2026-04-23 10:12 | 25.07741 | 57.18815 | 30246 ft | 474 kts | 117° |
| 2026-04-23 10:12 | 25.06455 | 57.22166 | 30456 ft | 476 kts | 117° |
| 2026-04-23 10:12 | 25.05176 | 57.25500 | 30668 ft | 478 kts | 116° |
| 2026-04-23 10:12 | 25.03876 | 57.28885 | 30883 ft | 480 kts | 116° |
| 2026-04-23 10:13 | 25.02583 | 57.32252 | 31076 ft | 482 kts | 116° |
| 2026-04-23 10:13 | 25.01270 | 57.35665 | 31276 ft | 484 kts | 116° |
| 2026-04-23 10:13 | 24.99956 | 57.39081 | 31468 ft | 485 kts | 116° |
| 2026-04-23 10:13 | 24.98646 | 57.42485 | 31681 ft | 486 kts | 116° |
| 2026-04-23 10:14 | 24.97321 | 57.45924 | 31939 ft | 486 kts | 116° |
| 2026-04-23 10:14 | 24.96005 | 57.49335 | 32206 ft | 486 kts | 116° |
| 2026-04-23 10:14 | 24.94692 | 57.52741 | 32464 ft | 486 kts | 116° |
| 2026-04-23 10:14 | 24.93361 | 57.56191 | 32708 ft | 486 kts | 116° |
| 2026-04-23 10:15 | 24.91608 | 57.60728 | 32997 ft | 486 kts | 115° |
| 2026-04-23 10:15 | 24.90722 | 57.63021 | 33143 ft | 487 kts | 115° |
| 2026-04-23 10:15 | 24.89397 | 57.66440 | 33364 ft | 486 kts | 116° |
| 2026-04-23 10:15 | 24.88071 | 57.69846 | 33573 ft | 487 kts | 116° |
| 2026-04-23 10:16 | 24.86741 | 57.73260 | 33770 ft | 487 kts | 116° |
| 2026-04-23 10:16 | 24.85425 | 57.76643 | 33968 ft | 487 kts | 115° |
| 2026-04-23 10:16 | 24.84169 | 57.80107 | 34169 ft | 488 kts | 112° |
| 2026-04-23 10:16 | 24.83085 | 57.83632 | 34379 ft | 489 kts | 109° |
| 2026-04-23 10:17 | 24.82176 | 57.87249 | 34585 ft | 489 kts | 105° |
| 2026-04-23 10:17 | 24.81412 | 57.90900 | 34766 ft | 489 kts | 104° |
| 2026-04-23 10:17 | 24.79952 | 57.98175 | 34801 ft | 489 kts | 104° |
| 2026-04-23 10:18 | 24.78485 | 58.05456 | 34804 ft | 489 kts | 104° |
| 2026-04-23 10:18 | 24.76999 | 58.12759 | 34805 ft | 489 kts | 104° |
| 2026-04-23 10:19 | 24.75510 | 58.20041 | 34806 ft | 488 kts | 104° |
| 2026-04-23 10:19 | 24.74021 | 58.27294 | 34806 ft | 489 kts | 104° |
| 2026-04-23 10:20 | 24.72525 | 58.34571 | 34806 ft | 489 kts | 104° |
| 2026-04-23 10:20 | 24.71026 | 58.41835 | 34806 ft | 489 kts | 104° |
| 2026-04-23 10:21 | 24.69525 | 58.49092 | 34807 ft | 489 kts | 104° |
| 2026-04-23 10:21 | 24.68012 | 58.56391 | 34803 ft | 489 kts | 104° |
| 2026-04-23 10:22 | 24.66498 | 58.63677 | 34805 ft | 489 kts | 104° |
| 2026-04-23 10:22 | 24.64998 | 58.70901 | 34806 ft | 489 kts | 105° |
| 2026-04-23 10:23 | 24.63485 | 58.78170 | 34805 ft | 489 kts | 105° |
| 2026-04-23 10:23 | 24.61968 | 58.85425 | 34806 ft | 489 kts | 105° |
| 2026-04-23 10:24 | 24.60442 | 58.92695 | 34805 ft | 490 kts | 105° |
| 2026-04-23 10:24 | 24.58905 | 59.00002 | 34806 ft | 490 kts | 105° |
| 2026-04-23 10:25 | 24.57381 | 59.07239 | 34807 ft | 491 kts | 104° |
| 2026-04-23 10:25 | 24.55824 | 59.14611 | 34806 ft | 499 kts | 104° |
| 2026-04-23 10:26 | 24.54248 | 59.22049 | 34806 ft | 501 kts | 105° |
| 2026-04-23 10:26 | 24.52656 | 59.29490 | 34805 ft | 502 kts | 105° |
| 2026-04-23 10:27 | 24.51068 | 59.36905 | 34805 ft | 502 kts | 105° |
| 2026-04-23 10:27 | 24.49467 | 59.44380 | 34807 ft | 502 kts | 104° |
| 2026-04-23 10:28 | 24.47872 | 59.51821 | 34805 ft | 502 kts | 104° |
| 2026-04-23 10:28 | 24.46285 | 59.59208 | 34807 ft | 501 kts | 105° |
| 2026-04-23 10:29 | 24.44683 | 59.66647 | 34804 ft | 501 kts | 105° |
| 2026-04-23 10:29 | 24.43082 | 59.74090 | 34805 ft | 501 kts | 105° |
| 2026-04-23 10:30 | 24.41480 | 59.81507 | 34806 ft | 502 kts | 105° |
| 2026-04-23 10:30 | 24.39866 | 59.88952 | 34805 ft | 501 kts | 105° |
| 2026-04-23 10:31 | 24.38254 | 59.96360 | 34805 ft | 501 kts | 105° |
| 2026-04-23 10:31 | 24.36626 | 60.03833 | 34806 ft | 502 kts | 105° |
| 2026-04-23 10:32 | 24.35011 | 60.11209 | 34805 ft | 501 kts | 105° |
| 2026-04-23 10:32 | 24.33378 | 60.18636 | 34806 ft | 501 kts | 105° |
| 2026-04-23 10:33 | 24.31744 | 60.26059 | 34805 ft | 501 kts | 105° |
| 2026-04-23 10:33 | 24.30106 | 60.33495 | 34806 ft | 502 kts | 105° |
| 2026-04-23 10:34 | 24.28467 | 60.40923 | 34806 ft | 502 kts | 105° |
| 2026-04-23 10:34 | 24.26824 | 60.48350 | 34806 ft | 502 kts | 105° |
| 2026-04-23 10:35 | 24.25184 | 60.55746 | 34805 ft | 502 kts | 105° |
| 2026-04-23 10:35 | 24.23544 | 60.63130 | 34806 ft | 502 kts | 105° |
| 2026-04-23 10:36 | 24.21902 | 60.70528 | 34803 ft | 501 kts | 105° |
| 2026-04-23 10:36 | 24.20253 | 60.77924 | 34805 ft | 501 kts | 105° |
| 2026-04-23 10:37 | 24.18593 | 60.85343 | 34805 ft | 501 kts | 105° |
| 2026-04-23 10:37 | 24.16931 | 60.92760 | 34805 ft | 501 kts | 105° |
| 2026-04-23 10:38 | 24.15276 | 61.00129 | 34805 ft | 502 kts | 105° |
| 2026-04-23 10:38 | 24.13607 | 61.07549 | 34807 ft | 502 kts | 105° |
| 2026-04-23 10:39 | 24.11936 | 61.14963 | 34807 ft | 502 kts | 105° |
| 2026-04-23 10:39 | 24.10265 | 61.22360 | 34806 ft | 502 kts | 105° |
| 2026-04-23 10:40 | 24.08626 | 61.29760 | 34812 ft | 503 kts | 103° |
| 2026-04-23 10:40 | 24.07539 | 61.37324 | 34823 ft | 504 kts | 96° |
| 2026-04-23 10:41 | 24.07050 | 61.44938 | 34837 ft | 504 kts | 94° |
| 2026-04-23 10:41 | 24.06619 | 61.52604 | 34851 ft | 504 kts | 94° |
| 2026-04-23 10:42 | 24.06173 | 61.60245 | 34868 ft | 504 kts | 94° |
| 2026-04-23 10:42 | 24.05713 | 61.67914 | 34884 ft | 504 kts | 95° |
| 2026-04-23 10:43 | 24.05248 | 61.75591 | 34901 ft | 504 kts | 95° |
| 2026-04-23 10:43 | 24.04778 | 61.83237 | 34909 ft | 504 kts | 95° |
| 2026-04-23 10:44 | 24.04303 | 61.90912 | 34913 ft | 504 kts | 95° |
| 2026-04-23 10:44 | 24.03826 | 61.98540 | 34914 ft | 504 kts | 95° |
| 2026-04-23 10:45 | 24.03346 | 62.06170 | 34914 ft | 504 kts | 95° |
| 2026-04-23 10:45 | 24.02857 | 62.13869 | 34914 ft | 504 kts | 95° |
| 2026-04-23 10:46 | 24.02369 | 62.21504 | 34915 ft | 504 kts | 95° |
| 2026-04-23 10:46 | 24.01878 | 62.29116 | 34915 ft | 504 kts | 95° |
| 2026-04-23 10:47 | 24.01381 | 62.36774 | 34914 ft | 504 kts | 95° |
| 2026-04-23 10:47 | 24.00878 | 62.44450 | 34915 ft | 504 kts | 95° |
| 2026-04-23 10:48 | 24.00373 | 62.52108 | 34915 ft | 504 kts | 95° |
| 2026-04-23 10:48 | 23.99865 | 62.59751 | 34915 ft | 504 kts | 95° |
| 2026-04-23 10:49 | 23.99352 | 62.67421 | 34913 ft | 504 kts | 95° |
| 2026-04-23 10:49 | 23.98838 | 62.75058 | 34914 ft | 504 kts | 95° |
| 2026-04-23 10:50 | 23.98322 | 62.82666 | 34914 ft | 504 kts | 95° |
| 2026-04-23 10:50 | 23.97799 | 62.90306 | 34914 ft | 504 kts | 95° |
| 2026-04-23 10:51 | 23.97269 | 62.97968 | 34914 ft | 503 kts | 95° |
| 2026-04-23 10:51 | 23.96739 | 63.05584 | 34915 ft | 502 kts | 95° |
| 2026-04-23 10:52 | 23.96210 | 63.13143 | 34915 ft | 500 kts | 95° |
| 2026-04-23 10:52 | 23.95677 | 63.20719 | 34908 ft | 500 kts | 95° |
| 2026-04-23 10:53 | 23.95144 | 63.28256 | 34885 ft | 500 kts | 95° |
| 2026-04-23 10:53 | 23.94604 | 63.35809 | 34855 ft | 500 kts | 95° |
| 2026-04-23 10:54 | 23.94060 | 63.43377 | 34826 ft | 500 kts | 95° |
| 2026-04-23 10:54 | 23.93513 | 63.50924 | 34813 ft | 500 kts | 95° |
| 2026-04-23 10:55 | 23.92964 | 63.58452 | 34808 ft | 500 kts | 95° |
| 2026-04-23 10:55 | 23.92406 | 63.66046 | 34806 ft | 500 kts | 95° |
| 2026-04-23 10:56 | 23.91850 | 63.73592 | 34806 ft | 500 kts | 95° |
| 2026-04-23 10:56 | 23.91287 | 63.81170 | 34806 ft | 500 kts | 95° |
| 2026-04-23 10:57 | 23.90723 | 63.88705 | 34806 ft | 500 kts | 95° |
| 2026-04-23 10:57 | 23.90152 | 63.96278 | 34806 ft | 500 kts | 95° |
| 2026-04-23 10:58 | 23.89562 | 64.03816 | 34806 ft | 500 kts | 95° |
| 2026-04-23 10:58 | 23.88959 | 64.11359 | 34806 ft | 500 kts | 95° |
| 2026-04-23 10:59 | 23.88368 | 64.18922 | 34806 ft | 500 kts | 95° |
| 2026-04-23 10:59 | 23.87783 | 64.26459 | 34806 ft | 500 kts | 95° |
| 2026-04-23 11:00 | 23.87196 | 64.34008 | 34806 ft | 500 kts | 95° |
| 2026-04-23 11:00 | 23.86604 | 64.41582 | 34806 ft | 500 kts | 95° |
| 2026-04-23 11:01 | 23.86010 | 64.49126 | 34806 ft | 500 kts | 95° |
| 2026-04-23 11:01 | 23.85413 | 64.56679 | 34806 ft | 500 kts | 95° |
| 2026-04-23 11:02 | 23.84816 | 64.64209 | 34806 ft | 500 kts | 95° |
| 2026-04-23 11:02 | 23.84216 | 64.71784 | 34806 ft | 500 kts | 95° |
| 2026-04-23 11:03 | 23.83623 | 64.79188 | 34806 ft | 500 kts | 95° |
| 2026-04-23 11:03 | 23.83282 | 64.86771 | 34807 ft | 500 kts | 90° |
| 2026-04-23 11:04 | 23.83313 | 64.94312 | 34807 ft | 499 kts | 89° |
| 2026-04-23 11:04 | 23.83370 | 65.01894 | 34807 ft | 499 kts | 89° |
| 2026-04-23 11:05 | 23.83417 | 65.09450 | 34806 ft | 498 kts | 89° |
| 2026-04-23 11:05 | 23.83458 | 65.16969 | 34806 ft | 498 kts | 89° |
| 2026-04-23 11:06 | 23.83514 | 65.29609 | 34805 ft | 501 kts | 90° |
| 2026-04-23 11:07 | 23.83538 | 65.35880 | 34805 ft | 500 kts | 90° |
| 2026-04-23 11:07 | 23.83563 | 65.43480 | 34806 ft | 499 kts | 89° |
| 2026-04-23 11:08 | 23.83585 | 65.51035 | 34806 ft | 499 kts | 90° |
| 2026-04-23 11:08 | 23.83603 | 65.58559 | 34806 ft | 499 kts | 89° |
| 2026-04-23 11:09 | 23.83618 | 65.66108 | 34805 ft | 498 kts | 90° |
| 2026-04-23 11:09 | 23.83629 | 65.73669 | 34806 ft | 499 kts | 90° |
| 2026-04-23 11:10 | 23.83637 | 65.82482 | 34806 ft | 498 kts | 90° |
| 2026-04-23 11:10 | 23.83640 | 65.88794 | 34806 ft | 498 kts | 90° |
| 2026-04-23 11:11 | 23.83639 | 65.96304 | 34806 ft | 498 kts | 90° |
| 2026-04-23 11:11 | 23.83635 | 66.03893 | 34806 ft | 498 kts | 90° |
| 2026-04-23 11:12 | 23.83627 | 66.12657 | 34806 ft | 498 kts | 90° |
| 2026-04-23 11:12 | 23.83617 | 66.18952 | 34806 ft | 498 kts | 90° |
| 2026-04-23 11:13 | 23.83602 | 66.26505 | 34806 ft | 498 kts | 90° |
| 2026-04-23 11:13 | 23.83584 | 66.34070 | 34806 ft | 498 kts | 90° |
| 2026-04-23 11:14 | 23.83563 | 66.41631 | 34806 ft | 499 kts | 90° |
| 2026-04-23 11:14 | 23.83537 | 66.49151 | 34806 ft | 498 kts | 90° |
| 2026-04-23 11:15 | 23.83508 | 66.56722 | 34806 ft | 498 kts | 90° |
| 2026-04-23 11:15 | 23.83477 | 66.64259 | 34806 ft | 498 kts | 90° |
| 2026-04-23 11:16 | 23.83438 | 66.73047 | 34806 ft | 498 kts | 90° |
| 2026-04-23 11:16 | 23.83407 | 66.79336 | 34806 ft | 498 kts | 90° |
| 2026-04-23 11:17 | 23.83369 | 66.86908 | 34806 ft | 498 kts | 90° |
| 2026-04-23 11:17 | 23.83329 | 66.94441 | 34806 ft | 498 kts | 90° |
| 2026-04-23 11:18 | 23.83709 | 67.02000 | 34807 ft | 498 kts | 83° |
| 2026-04-23 11:18 | 23.85000 | 67.10738 | 34807 ft | 503 kts | 79° |
| 2026-04-23 11:19 | 23.86257 | 67.18208 | 34806 ft | 502 kts | 79° |
| 2026-04-23 11:19 | 23.87295 | 67.24418 | 34806 ft | 502 kts | 79° |
| 2026-04-23 11:20 | 23.88743 | 67.33173 | 34806 ft | 502 kts | 79° |
| 2026-04-23 11:20 | 23.89767 | 67.39402 | 34804 ft | 501 kts | 79° |
| 2026-04-23 11:21 | 23.91197 | 67.48126 | 34804 ft | 502 kts | 79° |
| 2026-04-23 11:21 | 23.92220 | 67.54396 | 34804 ft | 502 kts | 79° |
| 2026-04-23 11:22 | 23.93638 | 67.63103 | 34804 ft | 502 kts | 79° |
| 2026-04-23 11:22 | 23.94648 | 67.69335 | 34804 ft | 502 kts | 79° |
| 2026-04-23 11:23 | 23.95858 | 67.76846 | 34806 ft | 502 kts | 79° |
| 2026-04-23 11:23 | 23.97265 | 67.85589 | 34806 ft | 502 kts | 79° |
| 2026-04-23 11:24 | 23.98478 | 67.93134 | 34806 ft | 503 kts | 79° |
| 2026-04-23 11:24 | 23.99679 | 68.00628 | 34804 ft | 502 kts | 79° |
| 2026-04-23 11:25 | 24.00682 | 68.06911 | 34805 ft | 503 kts | 79° |
| 2026-04-23 11:25 | 24.01879 | 68.14426 | 34804 ft | 503 kts | 79° |
| 2026-04-23 11:26 | 24.03269 | 68.23178 | 34804 ft | 503 kts | 79° |
| 2026-04-23 11:26 | 24.04257 | 68.29416 | 34806 ft | 503 kts | 79° |
| 2026-04-23 11:27 | 24.05443 | 68.36932 | 34805 ft | 503 kts | 79° |
| 2026-04-23 11:27 | 24.06629 | 68.44464 | 34806 ft | 503 kts | 79° |
| 2026-04-23 11:28 | 24.07811 | 68.51984 | 34806 ft | 503 kts | 79° |
| 2026-04-23 11:28 | 24.08996 | 68.59531 | 34804 ft | 503 kts | 79° |
| 2026-04-23 11:29 | 24.10177 | 68.67063 | 34805 ft | 503 kts | 80° |
| 2026-04-23 11:29 | 24.11249 | 68.74618 | 34806 ft | 503 kts | 84° |
| 2026-04-23 11:30 | 24.11625 | 68.82243 | 34804 ft | 503 kts | 90° |
| 2026-04-23 11:30 | 24.11528 | 68.89851 | 34805 ft | 504 kts | 91° |
| 2026-04-23 11:31 | 24.11398 | 68.97521 | 34806 ft | 504 kts | 91° |
| 2026-04-23 11:31 | 24.11276 | 69.05194 | 34806 ft | 504 kts | 91° |
| 2026-04-23 11:32 | 24.11157 | 69.12780 | 34806 ft | 503 kts | 91° |
| 2026-04-23 11:32 | 24.11015 | 69.21693 | 34805 ft | 503 kts | 91° |
| 2026-04-23 11:33 | 24.10889 | 69.29351 | 34804 ft | 503 kts | 91° |
| 2026-04-23 11:33 | 24.10760 | 69.37013 | 34803 ft | 503 kts | 91° |
| 2026-04-23 11:34 | 24.10627 | 69.44650 | 34805 ft | 504 kts | 91° |
| 2026-04-23 11:34 | 24.10490 | 69.52261 | 34807 ft | 504 kts | 91° |
| 2026-04-23 11:35 | 24.10349 | 69.59925 | 34806 ft | 504 kts | 91° |
| 2026-04-23 11:35 | 24.10205 | 69.67596 | 34804 ft | 504 kts | 91° |
| 2026-04-23 11:36 | 24.10082 | 69.73923 | 34806 ft | 504 kts | 91° |
| 2026-04-23 11:36 | 24.09930 | 69.81598 | 34805 ft | 504 kts | 91° |
| 2026-04-23 11:37 | 24.09749 | 69.90506 | 34805 ft | 504 kts | 91° |
| 2026-04-23 11:37 | 24.09589 | 69.98152 | 34798 ft | 504 kts | 91° |
| 2026-04-23 11:38 | 24.09427 | 70.05781 | 34790 ft | 504 kts | 91° |
| 2026-04-23 11:38 | 24.09259 | 70.13441 | 34781 ft | 504 kts | 91° |
| 2026-04-23 11:39 | 24.09087 | 70.21122 | 34774 ft | 505 kts | 91° |
| 2026-04-23 11:39 | 24.08912 | 70.28773 | 34765 ft | 505 kts | 91° |
| 2026-04-23 11:40 | 24.08734 | 70.36411 | 34757 ft | 505 kts | 91° |
| 2026-04-23 11:40 | 24.08550 | 70.44114 | 34754 ft | 505 kts | 91° |
| 2026-04-23 11:41 | 24.08364 | 70.51765 | 34751 ft | 505 kts | 91° |
| 2026-04-23 11:41 | 24.08174 | 70.59435 | 34752 ft | 505 kts | 91° |
| 2026-04-23 11:42 | 24.07979 | 70.67115 | 34751 ft | 505 kts | 92° |
| 2026-04-23 11:42 | 24.07783 | 70.74774 | 34750 ft | 506 kts | 92° |
| 2026-04-23 11:43 | 24.07582 | 70.82437 | 34752 ft | 506 kts | 92° |
| 2026-04-23 11:43 | 24.07379 | 70.90108 | 34752 ft | 505 kts | 92° |
| 2026-04-23 11:44 | 24.07170 | 70.97781 | 34750 ft | 505 kts | 92° |
| 2026-04-23 11:44 | 24.06956 | 71.05414 | 34751 ft | 504 kts | 92° |
| 2026-04-23 11:45 | 24.06735 | 71.13081 | 34751 ft | 504 kts | 92° |
| 2026-04-23 11:45 | 24.06514 | 71.20695 | 34749 ft | 504 kts | 92° |
| 2026-04-23 11:46 | 24.06329 | 71.27069 | 34750 ft | 504 kts | 92° |
| 2026-04-23 11:46 | 24.06065 | 71.35986 | 34751 ft | 505 kts | 92° |
| 2026-04-23 11:47 | 24.05865 | 71.42627 | 34751 ft | 505 kts | 92° |
| 2026-04-23 11:47 | 24.05631 | 71.50278 | 34752 ft | 505 kts | 92° |
| 2026-04-23 11:48 | 24.05392 | 71.57942 | 34751 ft | 505 kts | 92° |
| 2026-04-23 11:48 | 24.05151 | 71.65602 | 34751 ft | 505 kts | 92° |
| 2026-04-23 11:49 | 24.04905 | 71.73267 | 34750 ft | 505 kts | 92° |
| 2026-04-23 11:49 | 24.04656 | 71.80930 | 34750 ft | 505 kts | 92° |
| 2026-04-23 11:50 | 24.04403 | 71.88590 | 34752 ft | 506 kts | 92° |
| 2026-04-23 11:50 | 24.04145 | 71.96275 | 34751 ft | 506 kts | 92° |
| 2026-04-23 11:51 | 24.03885 | 72.03919 | 34751 ft | 506 kts | 92° |
| 2026-04-23 11:51 | 24.03620 | 72.11594 | 34750 ft | 506 kts | 92° |
| 2026-04-23 11:52 | 24.03351 | 72.19283 | 34750 ft | 505 kts | 92° |
| 2026-04-23 11:52 | 24.03079 | 72.26952 | 34749 ft | 506 kts | 92° |
| 2026-04-23 11:53 | 24.02803 | 72.34624 | 34750 ft | 506 kts | 92° |
| 2026-04-23 11:53 | 24.02525 | 72.42273 | 34751 ft | 506 kts | 92° |
| 2026-04-23 11:54 | 24.02241 | 72.49963 | 34750 ft | 506 kts | 92° |
| 2026-04-23 11:54 | 24.01956 | 72.57625 | 34751 ft | 506 kts | 92° |
| 2026-04-23 11:55 | 24.01668 | 72.65312 | 34751 ft | 506 kts | 92° |
| 2026-04-23 11:55 | 24.01671 | 72.73007 | 34751 ft | 506 kts | 89° |
| 2026-04-23 11:56 | 24.01772 | 72.80682 | 34751 ft | 506 kts | 89° |
| 2026-04-23 11:56 | 24.01871 | 72.88348 | 34751 ft | 507 kts | 89° |
| 2026-04-23 11:57 | 24.01963 | 72.96014 | 34757 ft | 507 kts | 89° |
| 2026-04-23 11:57 | 24.02048 | 73.03704 | 34761 ft | 508 kts | 89° |
| 2026-04-23 11:58 | 24.02129 | 73.11418 | 34777 ft | 509 kts | 89° |
| 2026-04-23 11:58 | 24.02208 | 73.19160 | 34799 ft | 510 kts | 89° |
| 2026-04-23 11:59 | 24.02281 | 73.26878 | 34817 ft | 510 kts | 89° |
| 2026-04-23 11:59 | 24.02351 | 73.34621 | 34826 ft | 510 kts | 89° |
| 2026-04-23 12:00 | 24.02418 | 73.42361 | 34830 ft | 510 kts | 89° |
| 2026-04-23 12:00 | 24.02471 | 73.48810 | 34832 ft | 510 kts | 89° |
| 2026-04-23 12:01 | 24.02541 | 73.57800 | 34831 ft | 510 kts | 89° |
| 2026-04-23 12:01 | 24.02597 | 73.65532 | 34831 ft | 510 kts | 90° |
| 2026-04-23 12:02 | 24.02647 | 73.73289 | 34832 ft | 510 kts | 90° |
| 2026-04-23 12:02 | 24.02692 | 73.81045 | 34831 ft | 510 kts | 90° |
| 2026-04-23 12:03 | 24.02736 | 73.88746 | 34794 ft | 510 kts | 90° |
| 2026-04-23 12:03 | 24.02778 | 73.96508 | 34767 ft | 510 kts | 90° |
| 2026-04-23 12:04 | 24.02817 | 74.04247 | 34756 ft | 510 kts | 90° |
| 2026-04-23 12:04 | 24.02872 | 74.11990 | 34752 ft | 510 kts | 89° |
| 2026-04-23 12:05 | 24.02988 | 74.19696 | 34752 ft | 510 kts | 89° |
| 2026-04-23 12:05 | 24.03105 | 74.27459 | 34751 ft | 510 kts | 89° |
| 2026-04-23 12:06 | 24.03213 | 74.35164 | 34752 ft | 510 kts | 89° |
| 2026-04-23 12:06 | 24.03366 | 74.46780 | 34752 ft | 511 kts | 89° |
| 2026-04-23 12:07 | 24.03465 | 74.54559 | 34751 ft | 510 kts | 89° |
| 2026-04-23 12:07 | 24.03557 | 74.62273 | 34750 ft | 510 kts | 89° |
| 2026-04-23 12:08 | 24.03362 | 74.70022 | 34750 ft | 510 kts | 95° |
| 2026-04-23 12:08 | 24.02410 | 74.77651 | 34752 ft | 509 kts | 102° |
| 2026-04-23 12:09 | 24.00693 | 74.85137 | 34752 ft | 509 kts | 108° |
| 2026-04-23 12:09 | 23.98604 | 74.92531 | 34752 ft | 509 kts | 108° |
| 2026-04-23 12:10 | 23.96509 | 74.99899 | 34751 ft | 508 kts | 108° |
| 2026-04-23 12:10 | 23.94432 | 75.07235 | 34751 ft | 508 kts | 108° |
| 2026-04-23 12:11 | 23.92340 | 75.14628 | 34751 ft | 508 kts | 108° |
| 2026-04-23 12:11 | 23.90262 | 75.21962 | 34751 ft | 508 kts | 108° |
| 2026-04-23 12:12 | 23.88152 | 75.29315 | 34751 ft | 508 kts | 108° |
| 2026-04-23 12:12 | 23.86039 | 75.36659 | 34751 ft | 508 kts | 108° |
| 2026-04-23 12:13 | 23.83941 | 75.43995 | 34751 ft | 508 kts | 108° |
| 2026-04-23 12:13 | 23.81840 | 75.51347 | 34751 ft | 508 kts | 108° |
| 2026-04-23 12:14 | 23.79745 | 75.58678 | 34751 ft | 508 kts | 108° |
| 2026-04-23 12:14 | 23.77644 | 75.66014 | 34750 ft | 508 kts | 109° |
| 2026-04-23 12:15 | 23.75551 | 75.73346 | 34751 ft | 508 kts | 108° |
| 2026-04-23 12:15 | 23.73444 | 75.80700 | 34751 ft | 508 kts | 109° |
| 2026-04-23 12:16 | 23.71340 | 75.88020 | 34751 ft | 508 kts | 109° |
| 2026-04-23 12:16 | 23.69221 | 75.95381 | 34751 ft | 508 kts | 109° |
| 2026-04-23 12:17 | 23.67099 | 76.02692 | 34751 ft | 508 kts | 109° |
| 2026-04-23 12:17 | 23.64938 | 76.10040 | 34759 ft | 508 kts | 109° |
| 2026-04-23 12:18 | 23.62793 | 76.17352 | 34812 ft | 508 kts | 109° |
| 2026-04-23 12:18 | 23.60656 | 76.24641 | 34842 ft | 508 kts | 109° |
| 2026-04-23 12:19 | 23.58505 | 76.31969 | 34854 ft | 508 kts | 109° |
| 2026-04-23 12:19 | 23.56357 | 76.39275 | 34858 ft | 508 kts | 109° |
| 2026-04-23 12:20 | 23.54207 | 76.46577 | 34859 ft | 508 kts | 109° |
| 2026-04-23 12:20 | 23.52050 | 76.53889 | 34859 ft | 508 kts | 109° |
| 2026-04-23 12:21 | 23.49891 | 76.61193 | 34859 ft | 508 kts | 109° |
| 2026-04-23 12:21 | 23.47737 | 76.68476 | 34859 ft | 508 kts | 109° |
| 2026-04-23 12:22 | 23.45579 | 76.75782 | 34859 ft | 508 kts | 109° |
| 2026-04-23 12:22 | 23.43406 | 76.83107 | 34859 ft | 507 kts | 109° |
| 2026-04-23 12:23 | 23.41237 | 76.90389 | 34859 ft | 508 kts | 109° |
| 2026-04-23 12:23 | 23.39067 | 76.97663 | 34859 ft | 509 kts | 109° |
| 2026-04-23 12:24 | 23.36883 | 77.04974 | 34859 ft | 509 kts | 109° |
| 2026-04-23 12:24 | 23.34693 | 77.12292 | 34859 ft | 509 kts | 109° |
| 2026-04-23 12:25 | 23.32504 | 77.19600 | 34859 ft | 509 kts | 109° |
| 2026-04-23 12:25 | 23.30322 | 77.26876 | 34859 ft | 509 kts | 109° |
| 2026-04-23 12:26 | 23.28125 | 77.34166 | 34859 ft | 509 kts | 109° |
| 2026-04-23 12:26 | 23.25732 | 77.41418 | 34860 ft | 509 kts | 111° |
| 2026-04-23 12:27 | 23.23297 | 77.48595 | 34860 ft | 509 kts | 111° |
| 2026-04-23 12:27 | 23.20859 | 77.55821 | 34860 ft | 509 kts | 111° |
| 2026-04-23 12:28 | 23.18438 | 77.63024 | 34860 ft | 509 kts | 111° |
| 2026-04-23 12:28 | 23.16023 | 77.70225 | 34859 ft | 509 kts | 111° |
| 2026-04-23 12:29 | 23.13610 | 77.77422 | 34859 ft | 509 kts | 111° |
| 2026-04-23 12:29 | 23.11190 | 77.84611 | 34857 ft | 509 kts | 111° |
| 2026-04-23 12:30 | 23.08758 | 77.91817 | 34848 ft | 509 kts | 111° |
| 2026-04-23 12:30 | 23.06730 | 77.97813 | 34834 ft | 509 kts | 111° |
| 2026-04-23 12:31 | 23.03881 | 78.06222 | 34808 ft | 509 kts | 111° |
| 2026-04-23 12:31 | 23.01428 | 78.13447 | 34791 ft | 509 kts | 111° |
| 2026-04-23 12:32 | 22.98979 | 78.20650 | 34783 ft | 509 kts | 111° |
| 2026-04-23 12:32 | 22.96934 | 78.26653 | 34781 ft | 509 kts | 111° |
| 2026-04-23 12:33 | 22.94083 | 78.35012 | 34780 ft | 509 kts | 111° |
| 2026-04-23 12:33 | 22.91626 | 78.42201 | 34792 ft | 509 kts | 111° |
| 2026-04-23 12:34 | 22.89168 | 78.49368 | 34800 ft | 509 kts | 111° |
| 2026-04-23 12:34 | 22.86667 | 78.56568 | 34803 ft | 509 kts | 111° |
| 2026-04-23 12:35 | 22.84190 | 78.63734 | 34804 ft | 509 kts | 111° |
| 2026-04-23 12:35 | 22.81728 | 78.70899 | 34804 ft | 509 kts | 111° |
| 2026-04-23 12:36 | 22.79267 | 78.78068 | 34804 ft | 509 kts | 111° |
| 2026-04-23 12:36 | 22.76796 | 78.85239 | 34804 ft | 509 kts | 111° |
| 2026-04-23 12:37 | 22.74317 | 78.92414 | 34804 ft | 509 kts | 111° |
| 2026-04-23 12:37 | 22.71844 | 78.99558 | 34804 ft | 508 kts | 111° |
| 2026-04-23 12:38 | 22.69374 | 79.06684 | 34805 ft | 508 kts | 111° |
| 2026-04-23 12:38 | 22.66887 | 79.13849 | 34805 ft | 508 kts | 111° |
| 2026-04-23 12:39 | 22.64410 | 79.20973 | 34804 ft | 507 kts | 111° |
| 2026-04-23 12:39 | 22.61942 | 79.28067 | 34804 ft | 507 kts | 111° |
| 2026-04-23 12:40 | 22.59459 | 79.35200 | 34804 ft | 507 kts | 111° |
| 2026-04-23 12:40 | 22.56971 | 79.42329 | 34804 ft | 507 kts | 111° |
| 2026-04-23 12:41 | 22.54476 | 79.49468 | 34804 ft | 507 kts | 111° |
| 2026-04-23 12:41 | 22.52004 | 79.56564 | 34804 ft | 507 kts | 111° |
| 2026-04-23 12:42 | 22.49518 | 79.63710 | 34804 ft | 507 kts | 111° |
| 2026-04-23 12:42 | 22.47056 | 79.70803 | 34804 ft | 507 kts | 111° |
| 2026-04-23 12:43 | 22.44575 | 79.77944 | 34804 ft | 507 kts | 111° |
| 2026-04-23 12:43 | 22.42087 | 79.85081 | 34804 ft | 507 kts | 111° |
| 2026-04-23 12:44 | 22.39599 | 79.92195 | 34804 ft | 507 kts | 111° |
| 2026-04-23 12:44 | 22.37120 | 79.99272 | 34804 ft | 507 kts | 111° |
| 2026-04-23 12:45 | 22.34625 | 80.06384 | 34804 ft | 507 kts | 111° |
| 2026-04-23 12:45 | 22.32122 | 80.13510 | 34804 ft | 507 kts | 111° |
| 2026-04-23 12:46 | 22.29618 | 80.20627 | 34804 ft | 507 kts | 111° |
| 2026-04-23 12:46 | 22.27537 | 80.26539 | 34804 ft | 507 kts | 111° |
| 2026-04-23 12:47 | 22.24616 | 80.34827 | 34805 ft | 507 kts | 111° |
| 2026-04-23 12:47 | 22.22533 | 80.40725 | 34805 ft | 507 kts | 111° |
| 2026-04-23 12:48 | 22.19591 | 80.49009 | 34805 ft | 507 kts | 111° |
| 2026-04-23 12:48 | 22.17067 | 80.56109 | 34805 ft | 507 kts | 111° |
| 2026-04-23 12:49 | 22.14543 | 80.63216 | 34805 ft | 507 kts | 111° |
| 2026-04-23 12:49 | 22.12043 | 80.70269 | 34804 ft | 507 kts | 112° |
| 2026-04-23 12:50 | 22.09527 | 80.77363 | 34801 ft | 507 kts | 112° |
| 2026-04-23 12:50 | 22.07010 | 80.84435 | 34795 ft | 507 kts | 112° |
| 2026-04-23 12:51 | 22.04486 | 80.91505 | 34787 ft | 507 kts | 112° |
| 2026-04-23 12:51 | 22.01957 | 80.98575 | 34782 ft | 508 kts | 112° |
| 2026-04-23 12:52 | 21.99411 | 81.05682 | 34780 ft | 509 kts | 111° |
| 2026-04-23 12:52 | 21.96861 | 81.12791 | 34780 ft | 509 kts | 111° |
| 2026-04-23 12:53 | 21.94312 | 81.19891 | 34780 ft | 509 kts | 111° |
| 2026-04-23 12:53 | 21.91770 | 81.26959 | 34780 ft | 509 kts | 111° |
| 2026-04-23 12:54 | 21.89208 | 81.34059 | 34828 ft | 510 kts | 111° |
| 2026-04-23 12:54 | 21.87918 | 81.37593 | 35290 ft | 504 kts | 111° |
| 2026-04-23 12:54 | 21.86659 | 81.41044 | 35869 ft | 495 kts | 111° |
| 2026-04-23 12:55 | 21.85424 | 81.44444 | 36282 ft | 490 kts | 111° |
| 2026-04-23 12:55 | 21.84179 | 81.47884 | 36540 ft | 489 kts | 111° |
| 2026-04-23 12:55 | 21.82959 | 81.51265 | 36714 ft | 489 kts | 111° |
| 2026-04-23 12:55 | 21.81731 | 81.54672 | 36766 ft | 490 kts | 111° |
| 2026-04-23 12:56 | 21.79260 | 81.61502 | 36778 ft | 490 kts | 111° |
| 2026-04-23 12:56 | 21.77051 | 81.68425 | 36780 ft | 491 kts | 108° |
| 2026-04-23 12:57 | 21.75060 | 81.75402 | 36781 ft | 491 kts | 107° |
| 2026-04-23 12:57 | 21.73057 | 81.82424 | 36781 ft | 491 kts | 107° |
| 2026-04-23 12:58 | 21.71057 | 81.89401 | 36781 ft | 491 kts | 107° |
| 2026-04-23 12:58 | 21.69055 | 81.96361 | 36781 ft | 491 kts | 107° |
| 2026-04-23 12:59 | 21.67021 | 82.03379 | 36781 ft | 491 kts | 108° |
| 2026-04-23 12:59 | 21.64985 | 82.10364 | 36781 ft | 491 kts | 108° |
| 2026-04-23 13:00 | 21.62965 | 82.17309 | 36781 ft | 491 kts | 107° |
| 2026-04-23 13:00 | 21.60932 | 82.24300 | 36781 ft | 491 kts | 107° |
| 2026-04-23 13:01 | 21.58899 | 82.31287 | 36781 ft | 491 kts | 107° |
| 2026-04-23 13:01 | 21.56872 | 82.38242 | 36781 ft | 491 kts | 107° |
| 2026-04-23 13:02 | 21.54829 | 82.45245 | 36781 ft | 491 kts | 107° |
| 2026-04-23 13:02 | 21.52801 | 82.52193 | 36781 ft | 491 kts | 107° |
| 2026-04-23 13:03 | 21.50765 | 82.59163 | 36781 ft | 491 kts | 107° |
| 2026-04-23 13:03 | 21.48752 | 82.65964 | 36783 ft | 491 kts | 109° |
| 2026-04-23 13:04 | 21.46300 | 82.72743 | 36811 ft | 490 kts | 113° |
| 2026-04-23 13:04 | 21.43695 | 82.79499 | 36826 ft | 490 kts | 113° |
| 2026-04-23 13:05 | 21.41078 | 82.86285 | 36832 ft | 489 kts | 113° |
| 2026-04-23 13:05 | 21.38498 | 82.92987 | 36834 ft | 488 kts | 113° |
| 2026-04-23 13:06 | 21.34620 | 83.03056 | 36835 ft | 486 kts | 112° |
| 2026-04-23 13:07 | 21.32055 | 83.09705 | 36834 ft | 485 kts | 112° |
| 2026-04-23 13:07 | 21.29483 | 83.16367 | 36834 ft | 485 kts | 112° |
| 2026-04-23 13:08 | 21.26901 | 83.23045 | 36834 ft | 485 kts | 112° |
| 2026-04-23 13:08 | 21.24316 | 83.29720 | 36834 ft | 485 kts | 112° |
| 2026-04-23 13:09 | 21.21733 | 83.36382 | 36834 ft | 485 kts | 112° |
| 2026-04-23 13:09 | 21.19142 | 83.43054 | 36834 ft | 485 kts | 112° |
| 2026-04-23 13:10 | 21.16552 | 83.49719 | 36834 ft | 485 kts | 112° |
| 2026-04-23 13:10 | 21.13960 | 83.56380 | 36834 ft | 485 kts | 112° |
| 2026-04-23 13:11 | 21.11367 | 83.63038 | 36835 ft | 485 kts | 112° |
| 2026-04-23 13:11 | 21.08777 | 83.69694 | 36834 ft | 484 kts | 112° |
| 2026-04-23 13:12 | 21.06199 | 83.76316 | 36835 ft | 482 kts | 112° |
| 2026-04-23 13:12 | 21.03599 | 83.82947 | 36835 ft | 480 kts | 112° |
| 2026-04-23 13:13 | 21.01195 | 83.89066 | 36835 ft | 478 kts | 112° |
| 2026-04-23 13:13 | 20.98648 | 83.95551 | 36835 ft | 476 kts | 112° |
| 2026-04-23 13:14 | 20.96076 | 84.02098 | 36835 ft | 474 kts | 112° |
| 2026-04-23 13:14 | 20.93524 | 84.08587 | 36834 ft | 473 kts | 112° |
| 2026-04-23 13:15 | 20.90983 | 84.15038 | 36834 ft | 473 kts | 112° |
| 2026-04-23 13:15 | 20.88423 | 84.21497 | 36834 ft | 473 kts | 113° |
| 2026-04-23 13:16 | 20.85847 | 84.27947 | 36834 ft | 473 kts | 112° |
| 2026-04-23 13:16 | 20.83274 | 84.34424 | 36834 ft | 473 kts | 112° |
| 2026-04-23 13:17 | 20.80710 | 84.40890 | 36834 ft | 473 kts | 112° |
| 2026-04-23 13:17 | 20.78145 | 84.47359 | 36834 ft | 473 kts | 112° |
| 2026-04-23 13:18 | 20.75578 | 84.53827 | 36834 ft | 473 kts | 112° |
| 2026-04-23 13:18 | 20.73440 | 84.59207 | 36825 ft | 473 kts | 112° |
| 2026-04-23 13:19 | 20.70867 | 84.65675 | 36783 ft | 473 kts | 113° |
| 2026-04-23 13:19 | 20.68308 | 84.72129 | 36753 ft | 473 kts | 113° |
| 2026-04-23 13:20 | 20.65752 | 84.78557 | 36737 ft | 473 kts | 113° |
| 2026-04-23 13:20 | 20.63154 | 84.85072 | 36729 ft | 473 kts | 113° |
| 2026-04-23 13:21 | 20.60574 | 84.91526 | 36726 ft | 473 kts | 113° |
| 2026-04-23 13:21 | 20.57993 | 84.97975 | 36726 ft | 474 kts | 113° |
| 2026-04-23 13:22 | 20.55412 | 85.04412 | 36726 ft | 473 kts | 113° |
| 2026-04-23 13:22 | 20.52827 | 85.10852 | 36726 ft | 473 kts | 112° |
| 2026-04-23 13:23 | 20.50244 | 85.17279 | 36726 ft | 472 kts | 112° |
| 2026-04-23 13:23 | 20.47671 | 85.23677 | 36726 ft | 472 kts | 112° |
| 2026-04-23 13:24 | 20.45085 | 85.30102 | 36726 ft | 472 kts | 112° |
| 2026-04-23 13:24 | 20.42491 | 85.36537 | 36726 ft | 472 kts | 112° |
| 2026-04-23 13:25 | 20.39908 | 85.42937 | 36726 ft | 472 kts | 112° |
| 2026-04-23 13:25 | 20.37324 | 85.49330 | 36726 ft | 472 kts | 112° |
| 2026-04-23 13:26 | 20.34727 | 85.55749 | 36726 ft | 472 kts | 112° |
| 2026-04-23 13:26 | 20.32137 | 85.62149 | 36726 ft | 472 kts | 112° |
| 2026-04-23 13:27 | 20.29567 | 85.68503 | 36726 ft | 472 kts | 112° |
| 2026-04-23 13:27 | 20.27013 | 85.74828 | 36726 ft | 472 kts | 113° |
| 2026-04-23 13:28 | 20.24425 | 85.81231 | 36725 ft | 472 kts | 112° |
| 2026-04-23 13:28 | 20.22056 | 85.87664 | 36725 ft | 472 kts | 110° |
| 2026-04-23 13:29 | 20.19710 | 85.94134 | 36726 ft | 472 kts | 110° |
| 2026-04-23 13:29 | 20.17341 | 86.00661 | 36726 ft | 472 kts | 110° |
| 2026-04-23 13:30 | 20.15021 | 86.07040 | 36726 ft | 472 kts | 110° |
| 2026-04-23 13:30 | 20.12821 | 86.13084 | 36726 ft | 473 kts | 110° |
| 2026-04-23 13:31 | 20.10356 | 86.19836 | 36726 ft | 473 kts | 110° |
| 2026-04-23 13:31 | 20.07982 | 86.26337 | 36726 ft | 473 kts | 110° |
| 2026-04-23 13:32 | 20.05611 | 86.32836 | 36727 ft | 476 kts | 110° |
| 2026-04-23 13:32 | 20.03206 | 86.39429 | 36719 ft | 475 kts | 110° |
| 2026-04-23 13:33 | 20.00813 | 86.45981 | 36726 ft | 481 kts | 110° |
| 2026-04-23 13:33 | 19.98391 | 86.52605 | 36726 ft | 485 kts | 110° |
| 2026-04-23 13:34 | 19.95952 | 86.59271 | 36726 ft | 485 kts | 110° |
| 2026-04-23 13:34 | 19.93511 | 86.65936 | 36726 ft | 485 kts | 111° |
| 2026-04-23 13:35 | 19.91059 | 86.72636 | 36726 ft | 485 kts | 111° |
| 2026-04-23 13:35 | 19.88600 | 86.79276 | 36725 ft | 485 kts | 111° |
| 2026-04-23 13:36 | 19.86115 | 86.85931 | 36726 ft | 485 kts | 111° |
| 2026-04-23 13:36 | 19.83657 | 86.92548 | 36726 ft | 485 kts | 111° |
| 2026-04-23 13:37 | 19.81191 | 86.99210 | 36726 ft | 484 kts | 111° |
| 2026-04-23 13:37 | 19.78742 | 87.05825 | 36726 ft | 484 kts | 111° |
| 2026-04-23 13:38 | 19.76269 | 87.12501 | 36726 ft | 483 kts | 111° |
| 2026-04-23 13:38 | 19.73819 | 87.19104 | 36726 ft | 483 kts | 111° |
| 2026-04-23 13:39 | 19.71352 | 87.25743 | 36726 ft | 483 kts | 111° |
| 2026-04-23 13:39 | 19.68897 | 87.32346 | 36726 ft | 484 kts | 111° |
| 2026-04-23 13:40 | 19.66446 | 87.38927 | 36726 ft | 483 kts | 111° |
| 2026-04-23 13:40 | 19.63977 | 87.45548 | 36726 ft | 483 kts | 111° |
| 2026-04-23 13:41 | 19.61507 | 87.52164 | 36725 ft | 483 kts | 111° |
| 2026-04-23 13:41 | 19.59025 | 87.58804 | 36726 ft | 484 kts | 111° |
| 2026-04-23 13:42 | 19.56564 | 87.65378 | 36725 ft | 483 kts | 111° |
| 2026-04-23 13:42 | 19.54486 | 87.70947 | 36731 ft | 484 kts | 111° |
| 2026-04-23 13:43 | 19.52015 | 87.77557 | 36742 ft | 483 kts | 111° |
| 2026-04-23 13:43 | 19.49536 | 87.84165 | 36748 ft | 483 kts | 111° |
| 2026-04-23 13:44 | 19.47062 | 87.90747 | 36750 ft | 483 kts | 111° |
| 2026-04-23 13:44 | 19.44560 | 87.97394 | 36750 ft | 484 kts | 111° |
| 2026-04-23 13:45 | 19.42494 | 88.02870 | 36751 ft | 483 kts | 111° |
| 2026-04-23 13:45 | 19.39591 | 88.10561 | 36751 ft | 483 kts | 111° |
| 2026-04-23 13:46 | 19.37092 | 88.17175 | 36751 ft | 484 kts | 111° |
| 2026-04-23 13:46 | 19.34607 | 88.23743 | 36751 ft | 484 kts | 111° |
| 2026-04-23 13:47 | 19.32102 | 88.30354 | 36751 ft | 483 kts | 111° |
| 2026-04-23 13:47 | 19.29605 | 88.36938 | 36751 ft | 483 kts | 111° |
| 2026-04-23 13:48 | 19.27097 | 88.43546 | 36751 ft | 484 kts | 111° |
| 2026-04-23 13:48 | 19.24594 | 88.50134 | 36751 ft | 483 kts | 111° |
| 2026-04-23 13:49 | 19.22079 | 88.56754 | 36751 ft | 483 kts | 111° |
| 2026-04-23 13:49 | 19.19574 | 88.63339 | 36751 ft | 483 kts | 111° |
| 2026-04-23 13:50 | 19.17094 | 88.69929 | 36750 ft | 483 kts | 111° |
| 2026-04-23 13:50 | 19.14672 | 88.76568 | 36750 ft | 483 kts | 111° |
| 2026-04-23 13:51 | 19.12260 | 88.83183 | 36751 ft | 483 kts | 111° |
| 2026-04-23 13:51 | 19.09850 | 88.89777 | 36751 ft | 481 kts | 111° |
| 2026-04-23 13:52 | 19.07424 | 88.96405 | 36751 ft | 480 kts | 111° |
| 2026-04-23 13:52 | 19.05020 | 89.02962 | 36750 ft | 480 kts | 112° |
| 2026-04-23 13:53 | 19.02603 | 89.09533 | 36750 ft | 482 kts | 112° |
| 2026-04-23 13:53 | 19.00976 | 89.13948 | 36751 ft | 481 kts | 112° |
| 2026-04-23 13:54 | 18.97749 | 89.22702 | 36751 ft | 480 kts | 112° |
| 2026-04-23 13:54 | 18.95328 | 89.29264 | 36751 ft | 479 kts | 112° |
| 2026-04-23 13:55 | 18.92917 | 89.35789 | 36750 ft | 478 kts | 112° |
| 2026-04-23 13:55 | 18.90507 | 89.42303 | 36746 ft | 477 kts | 112° |
| 2026-04-23 13:56 | 18.88081 | 89.48801 | 36740 ft | 475 kts | 112° |
| 2026-04-23 13:56 | 18.85647 | 89.55292 | 36733 ft | 475 kts | 112° |
| 2026-04-23 13:57 | 18.83232 | 89.61764 | 36736 ft | 475 kts | 112° |
| 2026-04-23 13:57 | 18.80823 | 89.68244 | 36747 ft | 475 kts | 112° |
| 2026-04-23 13:58 | 18.78418 | 89.74737 | 36760 ft | 475 kts | 113° |
| 2026-04-23 13:58 | 18.76406 | 89.80152 | 36770 ft | 475 kts | 113° |
| 2026-04-23 13:59 | 18.73597 | 89.87688 | 36776 ft | 474 kts | 113° |
| 2026-04-23 13:59 | 18.71176 | 89.94170 | 36778 ft | 474 kts | 113° |
| 2026-04-23 14:00 | 18.69173 | 89.99529 | 36779 ft | 474 kts | 113° |
| 2026-04-23 14:00 | 18.67152 | 90.04929 | 36779 ft | 474 kts | 113° |
| 2026-04-23 14:01 | 18.64735 | 90.11377 | 36779 ft | 474 kts | 113° |
| 2026-04-23 14:01 | 18.61485 | 90.20039 | 36779 ft | 474 kts | 113° |
| 2026-04-23 14:02 | 18.59070 | 90.26466 | 36779 ft | 474 kts | 113° |
| 2026-04-23 14:02 | 18.56640 | 90.32927 | 36779 ft | 474 kts | 113° |
| 2026-04-23 14:03 | 18.54224 | 90.39341 | 36779 ft | 474 kts | 113° |
| 2026-04-23 14:03 | 18.51796 | 90.45780 | 36779 ft | 474 kts | 113° |
| 2026-04-23 14:04 | 18.49354 | 90.52250 | 36779 ft | 474 kts | 113° |
| 2026-04-23 14:04 | 18.46907 | 90.58722 | 36779 ft | 474 kts | 113° |
| 2026-04-23 14:05 | 18.44485 | 90.65125 | 36779 ft | 474 kts | 113° |
| 2026-04-23 14:05 | 18.42049 | 90.71581 | 36779 ft | 474 kts | 113° |
| 2026-04-23 14:06 | 18.39608 | 90.78040 | 36779 ft | 474 kts | 113° |
| 2026-04-23 14:06 | 18.37172 | 90.84463 | 36779 ft | 474 kts | 113° |
| 2026-04-23 14:07 | 18.34702 | 90.90964 | 36779 ft | 474 kts | 113° |
| 2026-04-23 14:07 | 18.31028 | 91.00613 | 36779 ft | 474 kts | 113° |
| 2026-04-23 14:08 | 18.28570 | 91.07057 | 36779 ft | 473 kts | 113° |
| 2026-04-23 14:08 | 18.26136 | 91.13435 | 36780 ft | 471 kts | 113° |
| 2026-04-23 14:09 | 18.23695 | 91.19820 | 36779 ft | 470 kts | 113° |
| 2026-04-23 14:09 | 18.21256 | 91.26196 | 36779 ft | 470 kts | 112° |
| 2026-04-23 14:10 | 18.18808 | 91.32591 | 36779 ft | 470 kts | 112° |
| 2026-04-23 14:10 | 18.16380 | 91.38925 | 36779 ft | 470 kts | 112° |
| 2026-04-23 14:11 | 18.14740 | 91.43199 | 36779 ft | 470 kts | 112° |
| 2026-04-23 14:11 | 18.11497 | 91.51639 | 36779 ft | 470 kts | 112° |
| 2026-04-23 14:12 | 18.09046 | 91.58012 | 36779 ft | 470 kts | 112° |
| 2026-04-23 14:12 | 18.06600 | 91.64365 | 36784 ft | 470 kts | 112° |
| 2026-04-23 14:13 | 18.04149 | 91.70747 | 36796 ft | 470 kts | 113° |
| 2026-04-23 14:13 | 18.01703 | 91.77105 | 36803 ft | 470 kts | 113° |
| 2026-04-23 14:14 | 17.99257 | 91.83446 | 36805 ft | 470 kts | 113° |
| 2026-04-23 14:14 | 17.96794 | 91.89822 | 36805 ft | 470 kts | 113° |
| 2026-04-23 14:15 | 17.94322 | 91.96211 | 36806 ft | 470 kts | 113° |
| 2026-04-23 14:15 | 17.91865 | 92.02511 | 36806 ft | 470 kts | 113° |
| 2026-04-23 14:16 | 17.89340 | 92.08860 | 36806 ft | 470 kts | 114° |
| 2026-04-23 14:16 | 17.86811 | 92.15151 | 36806 ft | 470 kts | 114° |
| 2026-04-23 14:17 | 17.84297 | 92.21441 | 36806 ft | 470 kts | 114° |
| 2026-04-23 14:17 | 17.82198 | 92.26713 | 36805 ft | 470 kts | 113° |
| 2026-04-23 14:18 | 17.79270 | 92.34076 | 36806 ft | 470 kts | 113° |
| 2026-04-23 14:18 | 17.77174 | 92.39348 | 36805 ft | 470 kts | 113° |
| 2026-04-23 14:19 | 17.74224 | 92.46758 | 36805 ft | 470 kts | 113° |
| 2026-04-23 14:19 | 17.72131 | 92.52012 | 36805 ft | 470 kts | 113° |
| 2026-04-23 14:20 | 17.69200 | 92.59361 | 36805 ft | 470 kts | 113° |
| 2026-04-23 14:20 | 17.66676 | 92.65682 | 36806 ft | 470 kts | 114° |
| 2026-04-23 14:21 | 17.64171 | 92.71979 | 36806 ft | 470 kts | 114° |
| 2026-04-23 14:21 | 17.61654 | 92.78288 | 36806 ft | 470 kts | 114° |
| 2026-04-23 14:22 | 17.59121 | 92.84622 | 36806 ft | 470 kts | 114° |
| 2026-04-23 14:22 | 17.56591 | 92.90932 | 36805 ft | 470 kts | 114° |
| 2026-04-23 14:23 | 17.54069 | 92.97209 | 36805 ft | 470 kts | 113° |
| 2026-04-23 14:23 | 17.51535 | 93.03513 | 36805 ft | 471 kts | 113° |
| 2026-04-23 14:24 | 17.48980 | 93.09863 | 36805 ft | 472 kts | 113° |
| 2026-04-23 14:24 | 17.46428 | 93.16203 | 36805 ft | 473 kts | 113° |
| 2026-04-23 14:25 | 17.43887 | 93.22509 | 36806 ft | 473 kts | 113° |
| 2026-04-23 14:25 | 17.41328 | 93.28851 | 36805 ft | 473 kts | 113° |
| 2026-04-23 14:26 | 17.38761 | 93.35207 | 36806 ft | 473 kts | 113° |
| 2026-04-23 14:26 | 17.36204 | 93.41529 | 36806 ft | 473 kts | 113° |
| 2026-04-23 14:27 | 17.33646 | 93.47848 | 36806 ft | 473 kts | 113° |
| 2026-04-23 14:27 | 17.31076 | 93.54188 | 36806 ft | 473 kts | 113° |
| 2026-04-23 14:28 | 17.28496 | 93.60549 | 36806 ft | 473 kts | 113° |
| 2026-04-23 14:28 | 17.25928 | 93.66876 | 36806 ft | 473 kts | 113° |
| 2026-04-23 14:29 | 17.23369 | 93.73200 | 36806 ft | 473 kts | 113° |
| 2026-04-23 14:29 | 17.21245 | 93.78435 | 36806 ft | 473 kts | 113° |
| 2026-04-23 14:30 | 17.18235 | 93.85832 | 36806 ft | 473 kts | 113° |
| 2026-04-23 14:30 | 17.15661 | 93.92144 | 36805 ft | 473 kts | 113° |
| 2026-04-23 14:31 | 17.13071 | 93.98491 | 36806 ft | 473 kts | 113° |
| 2026-04-23 14:31 | 17.10502 | 94.04776 | 36806 ft | 472 kts | 113° |
| 2026-04-23 14:32 | 17.07918 | 94.11093 | 36807 ft | 470 kts | 113° |
| 2026-04-23 14:32 | 17.05368 | 94.17320 | 36807 ft | 467 kts | 113° |
| 2026-04-23 14:33 | 17.02807 | 94.23566 | 36807 ft | 465 kts | 113° |
| 2026-04-23 14:33 | 17.00691 | 94.28725 | 36807 ft | 462 kts | 113° |
| 2026-04-23 14:34 | 16.97753 | 94.35880 | 36807 ft | 459 kts | 112° |
| 2026-04-23 14:34 | 16.95243 | 94.41987 | 36806 ft | 457 kts | 112° |
| 2026-04-23 14:35 | 16.92733 | 94.48090 | 36806 ft | 456 kts | 112° |
| 2026-04-23 14:35 | 16.90236 | 94.54157 | 36806 ft | 456 kts | 112° |
| 2026-04-23 14:36 | 16.87719 | 94.60215 | 36806 ft | 456 kts | 113° |
| 2026-04-23 14:36 | 16.85196 | 94.66304 | 36807 ft | 456 kts | 113° |
| 2026-04-23 14:37 | 16.82709 | 94.72362 | 36806 ft | 456 kts | 113° |
| 2026-04-23 14:37 | 16.80100 | 94.78394 | 36805 ft | 457 kts | 116° |
| 2026-04-23 14:38 | 16.77232 | 94.84280 | 36805 ft | 457 kts | 116° |
| 2026-04-23 14:38 | 16.74354 | 94.90179 | 36805 ft | 458 kts | 116° |
| 2026-04-23 14:39 | 16.71464 | 94.96111 | 36805 ft | 458 kts | 116° |
| 2026-04-23 14:39 | 16.68585 | 95.02023 | 36805 ft | 459 kts | 116° |
| 2026-04-23 14:40 | 16.65694 | 95.07955 | 36805 ft | 460 kts | 116° |
| 2026-04-23 14:40 | 16.62818 | 95.13855 | 36805 ft | 460 kts | 116° |
| 2026-04-23 14:41 | 16.59917 | 95.19799 | 36805 ft | 460 kts | 116° |
| 2026-04-23 14:41 | 16.57020 | 95.25732 | 36805 ft | 460 kts | 116° |
| 2026-04-23 14:42 | 16.54612 | 95.30659 | 36805 ft | 460 kts | 116° |
| 2026-04-23 14:42 | 16.51233 | 95.37566 | 36806 ft | 460 kts | 116° |
| 2026-04-23 14:43 | 16.48326 | 95.43501 | 36818 ft | 460 kts | 116° |
| 2026-04-23 14:43 | 16.45428 | 95.49415 | 36828 ft | 460 kts | 116° |
| 2026-04-23 14:44 | 16.42537 | 95.55309 | 36832 ft | 460 kts | 116° |
| 2026-04-23 14:44 | 16.39632 | 95.61227 | 36834 ft | 460 kts | 116° |
| 2026-04-23 14:45 | 16.36715 | 95.67168 | 36834 ft | 460 kts | 116° |
| 2026-04-23 14:45 | 16.33825 | 95.73075 | 36834 ft | 460 kts | 116° |
| 2026-04-23 14:46 | 16.30918 | 95.78997 | 36834 ft | 460 kts | 116° |
| 2026-04-23 14:46 | 16.28010 | 95.84905 | 36834 ft | 460 kts | 116° |
| 2026-04-23 14:47 | 16.25089 | 95.90833 | 36834 ft | 459 kts | 116° |
| 2026-04-23 14:47 | 16.22189 | 95.96710 | 36834 ft | 459 kts | 116° |
| 2026-04-23 14:48 | 16.19269 | 96.02623 | 36834 ft | 459 kts | 116° |
| 2026-04-23 14:48 | 16.16363 | 96.08502 | 36834 ft | 459 kts | 116° |
| 2026-04-23 14:49 | 16.13455 | 96.14379 | 36834 ft | 459 kts | 116° |
| 2026-04-23 14:49 | 16.10525 | 96.20297 | 36834 ft | 459 kts | 116° |
| 2026-04-23 14:50 | 16.07603 | 96.26193 | 36834 ft | 459 kts | 116° |
| 2026-04-23 14:50 | 16.04701 | 96.32044 | 36834 ft | 459 kts | 116° |
| 2026-04-23 14:51 | 16.01775 | 96.37939 | 36834 ft | 459 kts | 116° |
| 2026-04-23 14:51 | 15.98840 | 96.43846 | 36834 ft | 459 kts | 116° |
| 2026-04-23 14:52 | 15.95918 | 96.49721 | 36834 ft | 459 kts | 116° |
| 2026-04-23 14:52 | 15.92976 | 96.55633 | 36834 ft | 459 kts | 116° |
| 2026-04-23 14:53 | 15.90051 | 96.61507 | 36834 ft | 459 kts | 116° |
| 2026-04-23 14:53 | 15.87101 | 96.67379 | 36834 ft | 459 kts | 117° |
| 2026-04-23 14:54 | 15.84168 | 96.73242 | 36834 ft | 459 kts | 117° |
| 2026-04-23 14:54 | 15.81247 | 96.79087 | 36834 ft | 459 kts | 117° |
| 2026-04-23 14:55 | 15.78307 | 96.84972 | 36834 ft | 459 kts | 117° |
| 2026-04-23 14:55 | 15.75492 | 96.90600 | 36834 ft | 459 kts | 117° |
| 2026-04-23 14:56 | 15.72550 | 96.96478 | 36834 ft | 459 kts | 117° |
| 2026-04-23 14:56 | 15.69621 | 97.02322 | 36834 ft | 460 kts | 117° |
| 2026-04-23 14:57 | 15.66655 | 97.08235 | 36833 ft | 461 kts | 116° |
| 2026-04-23 14:57 | 15.63706 | 97.14112 | 36833 ft | 462 kts | 116° |
| 2026-04-23 14:58 | 15.60753 | 97.19994 | 36833 ft | 463 kts | 116° |
| 2026-04-23 14:58 | 15.57778 | 97.25913 | 36834 ft | 464 kts | 116° |
| 2026-04-23 14:59 | 15.54799 | 97.31838 | 36834 ft | 464 kts | 116° |
| 2026-04-23 14:59 | 15.51810 | 97.37777 | 36834 ft | 464 kts | 116° |
| 2026-04-23 15:00 | 15.48841 | 97.43671 | 36834 ft | 464 kts | 116° |
| 2026-04-23 15:00 | 15.45861 | 97.49583 | 36834 ft | 464 kts | 116° |
| 2026-04-23 15:01 | 15.42885 | 97.55481 | 36834 ft | 464 kts | 116° |
| 2026-04-23 15:01 | 15.39896 | 97.61400 | 36834 ft | 464 kts | 116° |
| 2026-04-23 15:02 | 15.36897 | 97.67341 | 36834 ft | 464 kts | 116° |
| 2026-04-23 15:02 | 15.34134 | 97.72831 | 36834 ft | 464 kts | 116° |
| 2026-04-23 15:03 | 15.31329 | 97.78388 | 36834 ft | 464 kts | 116° |
| 2026-04-23 15:03 | 15.28342 | 97.84290 | 36834 ft | 464 kts | 116° |
| 2026-04-23 15:04 | 15.25324 | 97.90246 | 36834 ft | 464 kts | 116° |
| 2026-04-23 15:04 | 15.22340 | 97.96130 | 36834 ft | 464 kts | 116° |
| 2026-04-23 15:05 | 15.19330 | 98.02063 | 36834 ft | 464 kts | 116° |
| 2026-04-23 15:05 | 15.16334 | 98.07967 | 36834 ft | 464 kts | 116° |
| 2026-04-23 15:06 | 15.13351 | 98.13845 | 36834 ft | 464 kts | 116° |
| 2026-04-23 15:06 | 15.10342 | 98.19765 | 36834 ft | 464 kts | 116° |
| 2026-04-23 15:07 | 15.07360 | 98.25685 | 36834 ft | 464 kts | 116° |
| 2026-04-23 15:07 | 15.04421 | 98.31587 | 36834 ft | 464 kts | 116° |
| 2026-04-23 15:08 | 15.01484 | 98.37490 | 36834 ft | 464 kts | 116° |
| 2026-04-23 15:09 | 14.97053 | 98.46387 | 36371 ft | 462 kts | 116° |
| 2026-04-23 15:09 | 14.95584 | 98.49335 | 36120 ft | 460 kts | 116° |
| 2026-04-23 15:09 | 14.94118 | 98.52274 | 35869 ft | 457 kts | 116° |
| 2026-04-23 15:09 | 14.92671 | 98.55175 | 35620 ft | 456 kts | 116° |
| 2026-04-23 15:10 | 14.91696 | 98.57130 | 35452 ft | 456 kts | 116° |
| 2026-04-23 15:10 | 14.89766 | 98.60996 | 35120 ft | 457 kts | 116° |
| 2026-04-23 15:10 | 14.88302 | 98.63905 | 34870 ft | 458 kts | 116° |
| 2026-04-23 15:10 | 14.87178 | 98.66132 | 34680 ft | 458 kts | 116° |
| 2026-04-23 15:11 | 14.85443 | 98.69588 | 34384 ft | 459 kts | 116° |
| 2026-04-23 15:11 | 14.83975 | 98.72521 | 34133 ft | 460 kts | 116° |
| 2026-04-23 15:11 | 14.82505 | 98.75460 | 33883 ft | 461 kts | 116° |
| 2026-04-23 15:11 | 14.80998 | 98.78473 | 33626 ft | 462 kts | 116° |
| 2026-04-23 15:12 | 14.79528 | 98.81409 | 33376 ft | 462 kts | 116° |
| 2026-04-23 15:12 | 14.78041 | 98.84378 | 33124 ft | 463 kts | 116° |
| 2026-04-23 15:12 | 14.76563 | 98.87328 | 32874 ft | 464 kts | 116° |
| 2026-04-23 15:12 | 14.75574 | 98.89301 | 32707 ft | 465 kts | 116° |
| 2026-04-23 15:13 | 14.73595 | 98.93249 | 32372 ft | 465 kts | 116° |
| 2026-04-23 15:13 | 14.72109 | 98.96209 | 32121 ft | 463 kts | 116° |
| 2026-04-23 15:13 | 14.70640 | 98.99135 | 31872 ft | 462 kts | 116° |
| 2026-04-23 15:13 | 14.69168 | 99.02070 | 31622 ft | 460 kts | 116° |
| 2026-04-23 15:14 | 14.67699 | 99.04997 | 31371 ft | 459 kts | 116° |
| 2026-04-23 15:14 | 14.66247 | 99.07889 | 31122 ft | 457 kts | 115° |
| 2026-04-23 15:14 | 14.64781 | 99.10808 | 30870 ft | 456 kts | 115° |
| 2026-04-23 15:14 | 14.63326 | 99.13705 | 30592 ft | 454 kts | 115° |
| 2026-04-23 15:15 | 14.61942 | 99.16634 | 30261 ft | 453 kts | 113° |
| 2026-04-23 15:15 | 14.60652 | 99.19568 | 29863 ft | 449 kts | 112° |
| 2026-04-23 15:15 | 14.59393 | 99.22495 | 29397 ft | 446 kts | 112° |
| 2026-04-23 15:15 | 14.58138 | 99.25417 | 28895 ft | 444 kts | 112° |
| 2026-04-23 15:16 | 14.56905 | 99.28282 | 28399 ft | 441 kts | 112° |
| 2026-04-23 15:16 | 14.55654 | 99.31184 | 27893 ft | 438 kts | 112° |
| 2026-04-23 15:16 | 14.54433 | 99.34009 | 27397 ft | 435 kts | 111° |
| 2026-04-23 15:16 | 14.53195 | 99.36869 | 26946 ft | 432 kts | 111° |
| 2026-04-23 15:17 | 14.51979 | 99.39681 | 26538 ft | 431 kts | 111° |
| 2026-04-23 15:17 | 14.50766 | 99.42482 | 26138 ft | 429 kts | 111° |
| 2026-04-23 15:17 | 14.49563 | 99.45264 | 25739 ft | 427 kts | 111° |
| 2026-04-23 15:17 | 14.48355 | 99.48051 | 25338 ft | 424 kts | 111° |
| 2026-04-23 15:18 | 14.47155 | 99.50816 | 24937 ft | 422 kts | 111° |
| 2026-04-23 15:18 | 14.45954 | 99.53577 | 24535 ft | 420 kts | 111° |
| 2026-04-23 15:18 | 14.44760 | 99.56312 | 24135 ft | 418 kts | 111° |
| 2026-04-23 15:18 | 14.43576 | 99.59022 | 23736 ft | 416 kts | 111° |
| 2026-04-23 15:19 | 14.42387 | 99.61751 | 23333 ft | 414 kts | 111° |
| 2026-04-23 15:19 | 14.41215 | 99.64442 | 22934 ft | 412 kts | 111° |
| 2026-04-23 15:19 | 14.40053 | 99.67119 | 22535 ft | 410 kts | 111° |
| 2026-04-23 15:19 | 14.38890 | 99.69808 | 22132 ft | 408 kts | 111° |
| 2026-04-23 15:20 | 14.38124 | 99.71577 | 21866 ft | 407 kts | 111° |
| 2026-04-23 15:20 | 14.36600 | 99.75092 | 21335 ft | 404 kts | 111° |
| 2026-04-23 15:20 | 14.35456 | 99.77727 | 20934 ft | 402 kts | 111° |
| 2026-04-23 15:20 | 14.34314 | 99.80357 | 20532 ft | 401 kts | 111° |
| 2026-04-23 15:21 | 14.33172 | 99.82983 | 20129 ft | 399 kts | 111° |
| 2026-04-23 15:21 | 14.32042 | 99.85583 | 19728 ft | 397 kts | 111° |
| 2026-04-23 15:21 | 14.30921 | 99.88161 | 19329 ft | 395 kts | 111° |
| 2026-04-23 15:21 | 14.29808 | 99.90722 | 18930 ft | 393 kts | 111° |
| 2026-04-23 15:22 | 14.28692 | 99.93288 | 18529 ft | 391 kts | 111° |
| 2026-04-23 15:22 | 14.27579 | 99.95843 | 18127 ft | 389 kts | 111° |
| 2026-04-23 15:22 | 14.26484 | 99.98354 | 17730 ft | 387 kts | 111° |
| 2026-04-23 15:22 | 14.25373 | 100.00898 | 17326 ft | 386 kts | 111° |
| 2026-04-23 15:23 | 14.24282 | 100.03395 | 16928 ft | 384 kts | 111° |
| 2026-04-23 15:23 | 14.23185 | 100.05907 | 16525 ft | 382 kts | 111° |
| 2026-04-23 15:23 | 14.22110 | 100.08370 | 16128 ft | 380 kts | 111° |
| 2026-04-23 15:23 | 14.21026 | 100.10851 | 15727 ft | 378 kts | 111° |
| 2026-04-23 15:24 | 14.19940 | 100.13332 | 15323 ft | 377 kts | 111° |
| 2026-04-23 15:24 | 14.18868 | 100.15781 | 14923 ft | 375 kts | 111° |
| 2026-04-23 15:24 | 14.17817 | 100.18185 | 14528 ft | 373 kts | 111° |
| 2026-04-23 15:24 | 14.16747 | 100.20631 | 14125 ft | 371 kts | 111° |
| 2026-04-23 15:25 | 14.15692 | 100.23041 | 13723 ft | 370 kts | 111° |
| 2026-04-23 15:25 | 14.14638 | 100.25448 | 13297 ft | 368 kts | 111° |
| 2026-04-23 15:25 | 14.13938 | 100.27045 | 13013 ft | 366 kts | 111° |
| 2026-04-23 15:25 | 14.12555 | 100.30200 | 12448 ft | 364 kts | 111° |
| 2026-04-23 15:26 | 14.11519 | 100.32567 | 12023 ft | 362 kts | 111° |
| 2026-04-23 15:26 | 14.10487 | 100.34919 | 11598 ft | 360 kts | 111° |
| 2026-04-23 15:26 | 14.09458 | 100.37266 | 11171 ft | 356 kts | 111° |
| 2026-04-23 15:26 | 14.08784 | 100.38798 | 10890 ft | 354 kts | 112° |
| 2026-04-23 15:27 | 14.07443 | 100.41846 | 10325 ft | 349 kts | 112° |
| 2026-04-23 15:27 | 14.06445 | 100.44119 | 9894 ft | 339 kts | 112° |
| 2026-04-23 15:27 | 14.05502 | 100.46268 | 9474 ft | 326 kts | 112° |
| 2026-04-23 15:27 | 14.04568 | 100.48398 | 9044 ft | 320 kts | 112° |
| 2026-04-23 15:28 | 14.03670 | 100.50447 | 8623 ft | 314 kts | 112° |
| 2026-04-23 15:28 | 14.02791 | 100.52453 | 8202 ft | 304 kts | 112° |
| 2026-04-23 15:28 | 14.01928 | 100.54420 | 7782 ft | 295 kts | 112° |
| 2026-04-23 15:28 | 14.01094 | 100.56316 | 7409 ft | 290 kts | 112° |
| 2026-04-23 15:29 | 14.00275 | 100.58197 | 7034 ft | 286 kts | 113° |
| 2026-04-23 15:29 | 13.99504 | 100.60061 | 6660 ft | 285 kts | 109° |
| 2026-04-23 15:29 | 13.98899 | 100.61999 | 6285 ft | 283 kts | 105° |
| 2026-04-23 15:29 | 13.98393 | 100.63935 | 6027 ft | 278 kts | 104° |
| 2026-04-23 15:30 | 13.97907 | 100.65818 | 6003 ft | 267 kts | 104° |
| 2026-04-23 15:30 | 13.97430 | 100.67667 | 6000 ft | 267 kts | 104° |
| 2026-04-23 15:30 | 13.97020 | 100.69534 | 5987 ft | 267 kts | 93° |
| 2026-04-23 15:30 | 13.97433 | 100.71370 | 5977 ft | 270 kts | 59° |
| 2026-04-23 15:31 | 13.98821 | 100.72661 | 5987 ft | 276 kts | 26° |
| 2026-04-23 15:31 | 14.00665 | 100.73225 | 6004 ft | 280 kts | 16° |
| 2026-04-23 15:31 | 14.02569 | 100.73692 | 5999 ft | 279 kts | 16° |
| 2026-04-23 15:31 | 14.04447 | 100.74161 | 5997 ft | 280 kts | 15° |
| 2026-04-23 15:32 | 14.06337 | 100.74576 | 5997 ft | 278 kts | 14° |
| 2026-04-23 15:32 | 14.08246 | 100.74985 | 5995 ft | 279 kts | 14° |
| 2026-04-23 15:32 | 14.10144 | 100.75394 | 5997 ft | 281 kts | 14° |
| 2026-04-23 15:32 | 14.12059 | 100.75809 | 5996 ft | 279 kts | 16° |
| 2026-04-23 15:33 | 14.13808 | 100.76591 | 5985 ft | 275 kts | 41° |
| 2026-04-23 15:33 | 14.15006 | 100.78088 | 5996 ft | 270 kts | 67° |
| 2026-04-23 15:33 | 14.15390 | 100.79942 | 5998 ft | 267 kts | 93° |
| 2026-04-23 15:33 | 14.14904 | 100.81762 | 6000 ft | 268 kts | 119° |
| 2026-04-23 15:34 | 14.13621 | 100.83181 | 6000 ft | 272 kts | 146° |
| 2026-04-23 15:34 | 14.11866 | 100.83834 | 6002 ft | 275 kts | 171° |
| 2026-04-23 15:34 | 14.09965 | 100.83926 | 5846 ft | 274 kts | 178° |
| 2026-04-23 15:34 | 14.08044 | 100.83869 | 5421 ft | 277 kts | 181° |
| 2026-04-23 15:35 | 14.06152 | 100.83608 | 5092 ft | 279 kts | 193° |
| 2026-04-23 15:35 | 14.04314 | 100.83028 | 5004 ft | 274 kts | 193° |
| 2026-04-23 15:35 | 14.02468 | 100.82540 | 5000 ft | 276 kts | 191° |
| 2026-04-23 15:35 | 14.00598 | 100.82076 | 4998 ft | 277 kts | 191° |
| 2026-04-23 15:36 | 13.98719 | 100.81609 | 4998 ft | 277 kts | 191° |
| 2026-04-23 15:36 | 13.96874 | 100.81152 | 4996 ft | 272 kts | 191° |
| 2026-04-23 15:36 | 13.95062 | 100.80730 | 4878 ft | 264 kts | 190° |
| 2026-04-23 15:36 | 13.93271 | 100.80306 | 4577 ft | 263 kts | 191° |
| 2026-04-23 15:37 | 13.91506 | 100.79867 | 4226 ft | 259 kts | 191° |
| 2026-04-23 15:37 | 13.89799 | 100.79426 | 3887 ft | 246 kts | 191° |
| 2026-04-23 15:37 | 13.88725 | 100.79146 | 3676 ft | 238 kts | 191° |
| 2026-04-23 15:37 | 13.86643 | 100.78600 | 3264 ft | 224 kts | 192° |
| 2026-04-23 15:38 | 13.85160 | 100.78210 | 2971 ft | 217 kts | 192° |
| 2026-04-23 15:38 | 13.83730 | 100.77834 | 2688 ft | 210 kts | 192° |
| 2026-04-23 15:38 | 13.82319 | 100.77463 | 2408 ft | 206 kts | 192° |
| 2026-04-23 15:38 | 13.80961 | 100.77105 | 2138 ft | 198 kts | 192° |
| 2026-04-23 15:39 | 13.79678 | 100.76767 | 1911 ft | 184 kts | 192° |
| 2026-04-23 15:39 | 13.78482 | 100.76452 | 1666 ft | 172 kts | 192° |
| 2026-04-23 15:39 | 13.77366 | 100.76159 | 1433 ft | 160 kts | 192° |
| 2026-04-23 15:39 | 13.76324 | 100.75884 | 1217 ft | 148 kts | 192° |
| 2026-04-23 15:40 | 13.75362 | 100.75632 | 1026 ft | 141 kts | 192° |
| 2026-04-23 15:40 | 13.74419 | 100.75385 | 847 ft | 140 kts | 193° |
| 2026-04-23 15:40 | 13.73479 | 100.75137 | 665 ft | 139 kts | 193° |
| 2026-04-23 15:40 | 13.72543 | 100.74886 | 472 ft | 139 kts | 194° |
| 2026-04-23 15:41 | 13.71607 | 100.74639 | 277 ft | 138 kts | 193° |
| 2026-04-23 15:41 | 13.70687 | 100.74403 | 115 ft | 137 kts | 194° |
| 2026-04-23 15:41 | 13.69774 | 100.74164 | 15 ft | 126 kts | 194° |
| 2026-04-23 15:41 | 13.69113 | 100.73989 | 13 ft | 54 kts | 194° |
| 2026-04-23 15:42 | 13.68894 | 100.73961 | 13 ft | 25 kts | 168° |
| 2026-04-23 15:42 | 13.68772 | 100.73993 | 13 ft | 8 kts | 160° |
| 2026-04-23 15:42 | 13.68751 | 100.74003 | 13 ft | 0 kts | 152° |
| 2026-04-23 15:43 | 13.68744 | 100.74007 | 13 ft | 1 kts | 145° |
| 2026-04-23 15:43 | 13.68733 | 100.74017 | 13 ft | 2 kts | 134° |
| 2026-04-23 15:43 | 13.68723 | 100.74035 | 13 ft | 3 kts | 115° |
| 2026-04-23 15:44 | 13.68717 | 100.74054 | 13 ft | 3 kts | 107° |
| 2026-04-23 15:44 | 13.68704 | 100.74102 | 13 ft | 11 kts | 105° |
| 2026-04-23 15:44 | 13.68675 | 100.74215 | 13 ft | 19 kts | 104° |
| 2026-04-23 15:44 | 13.68641 | 100.74358 | 13 ft | 21 kts | 104° |
| 2026-04-23 15:45 | 13.68604 | 100.74509 | 13 ft | 22 kts | 104° |
| 2026-04-23 15:45 | 13.68562 | 100.74674 | 13 ft | 24 kts | 105° |
| 2026-04-23 15:45 | 13.68530 | 100.74798 | 13 ft | 17 kts | 104° |
| 2026-04-23 15:45 | 13.68500 | 100.74927 | 13 ft | 19 kts | 103° |
| 2026-04-23 15:46 | 13.68470 | 100.75046 | 13 ft | 15 kts | 104° |
| 2026-04-23 15:46 | 13.68505 | 100.75114 | 13 ft | 12 kts | 26° |
| 2026-04-23 15:46 | 13.68590 | 100.75139 | 13 ft | 13 kts | 11° |
| 2026-04-23 15:46 | 13.68682 | 100.75159 | 13 ft | 14 kts | 13° |
| 2026-04-23 15:47 | 13.68784 | 100.75184 | 13 ft | 15 kts | 13° |
| 2026-04-23 15:47 | 13.68869 | 100.75209 | 13 ft | 8 kts | 26° |
| 2026-04-23 15:47 | 13.68886 | 100.75232 | 13 ft | 3 kts | 77° |
| 2026-04-23 15:47 | 13.68884 | 100.75253 | 13 ft | 2 kts | 105° |
| 2026-04-23 15:48 | 13.68880 | 100.75269 | 13 ft | 2 kts | 104° |
| 2026-04-23 15:48 | 13.68877 | 100.75285 | 13 ft | 1 kts | 103° |
| 2026-04-23 15:48 | 13.68876 | 100.75286 | 13 ft | 0 kts | 103° |